createdAt,value
2022-12-20T00:01:15.551Z,6.50
2022-12-20T00:03:44.590Z,6.40
2022-12-20T00:06:14.508Z,6.50
2022-12-20T00:08:42.855Z,6.50
2022-12-20T00:11:12.961Z,6.50
2022-12-20T00:13:41.265Z,6.50
2022-12-20T00:16:11.076Z,6.50
2022-12-20T00:18:42.152Z,6.50
2022-12-20T00:21:12.782Z,6.50
2022-12-20T00:23:41.683Z,6.50
2022-12-20T00:26:12.372Z,6.50
2022-12-20T00:28:41.784Z,6.50
2022-12-20T00:31:13.464Z,6.50
2022-12-20T00:33:45.829Z,6.50
2022-12-20T00:36:14.945Z,6.50
2022-12-20T00:38:45.473Z,6.40
2022-12-20T00:41:16.787Z,6.50
2022-12-20T00:43:45.085Z,6.50
2022-12-20T00:46:14.473Z,6.50
2022-12-20T00:48:44.077Z,6.40
2022-12-20T00:51:13.903Z,6.50
2022-12-20T00:53:42.662Z,6.50
2022-12-20T00:56:12.037Z,6.50
2022-12-20T00:58:42.950Z,6.50
2022-12-20T01:01:18.783Z,6.50
2022-12-20T01:03:49.071Z,6.50
2022-12-20T01:06:17.361Z,6.50
2022-12-20T01:08:46.007Z,6.50
2022-12-20T01:11:16.431Z,6.50
2022-12-20T01:13:46.679Z,6.50
2022-12-20T01:16:17.696Z,6.50
2022-12-20T01:18:47.406Z,6.50
2022-12-20T01:21:17.786Z,6.50
2022-12-20T01:23:46.023Z,6.50
2022-12-20T01:26:16.802Z,6.50
2022-12-20T01:28:47.086Z,6.50
2022-12-20T01:31:17.823Z,6.50
2022-12-20T01:33:48.649Z,6.50
2022-12-20T01:36:18.661Z,6.40
2022-12-20T01:38:47.161Z,6.50
2022-12-20T01:41:17.652Z,6.50
2022-12-20T01:43:52.599Z,6.50
2022-12-20T01:46:22.050Z,6.50
2022-12-20T01:48:55.588Z,6.50
2022-12-20T01:51:24.992Z,6.50
2022-12-20T01:53:58.500Z,6.60
2022-12-20T01:56:27.079Z,6.60
2022-12-20T01:58:57.643Z,6.60
2022-12-20T02:01:26.861Z,6.60
2022-12-20T02:03:57.329Z,6.60
2022-12-20T02:06:27.980Z,6.60
2022-12-20T02:09:00.142Z,6.60
2022-12-20T02:11:51.286Z,6.60
2022-12-20T02:14:33.294Z,6.60
2022-12-20T02:17:11.913Z,6.60
2022-12-20T02:20:12.317Z,6.60
2022-12-20T02:22:56.483Z,6.60
2022-12-20T02:25:45.951Z,6.60
2022-12-20T02:28:29.194Z,6.60
2022-12-20T02:31:05.107Z,6.60
2022-12-20T02:33:33.319Z,6.60
2022-12-20T02:36:01.498Z,6.60
2022-12-20T02:38:32.469Z,6.50
2022-12-20T02:41:04.449Z,6.50
2022-12-20T02:43:51.167Z,6.50
2022-12-20T02:46:22.185Z,6.60
2022-12-20T02:48:52.367Z,6.50
2022-12-20T02:51:22.698Z,6.50
2022-12-20T02:53:51.707Z,6.50
2022-12-20T02:56:26.339Z,6.50
2022-12-20T02:58:59.053Z,6.50
2022-12-20T03:01:32.928Z,6.50
2022-12-20T03:04:02.442Z,6.50
2022-12-20T03:06:31.316Z,6.50
2022-12-20T03:08:59.585Z,6.40
2022-12-20T03:11:27.887Z,6.40
2022-12-20T03:13:56.050Z,6.40
2022-12-20T03:16:24.407Z,6.40
2022-12-20T03:18:54.032Z,6.40
2022-12-20T03:21:22.218Z,6.30
2022-12-20T03:23:50.375Z,6.30
2022-12-20T03:26:18.517Z,6.30
2022-12-20T03:28:46.662Z,6.30
2022-12-20T03:31:15.396Z,6.40
2022-12-20T03:33:43.590Z,6.40
2022-12-20T03:36:13.134Z,6.40
2022-12-20T03:38:41.369Z,6.40
2022-12-20T03:41:09.570Z,6.40
2022-12-20T03:43:37.711Z,6.40
2022-12-20T03:46:06.049Z,6.40
2022-12-20T03:48:34.278Z,6.40
2022-12-20T03:51:02.480Z,6.50
2022-12-20T03:53:32.119Z,6.50
2022-12-20T03:56:00.303Z,6.40
2022-12-20T03:58:28.879Z,6.50
2022-12-20T04:00:58.049Z,6.50
2022-12-20T04:03:26.268Z,6.50
2022-12-20T04:05:54.474Z,6.60
2022-12-20T04:08:22.665Z,6.60
2022-12-20T04:11:09.490Z,6.60
2022-12-20T04:13:37.655Z,6.60
2022-12-20T04:16:06.228Z,6.70
2022-12-20T04:18:34.464Z,6.70
2022-12-20T04:21:02.989Z,6.80
2022-12-20T04:23:31.326Z,6.80
2022-12-20T04:26:00.921Z,6.90
2022-12-20T04:28:29.167Z,6.90
2022-12-20T04:30:57.422Z,6.90
2022-12-20T04:33:26.540Z,7.00
2022-12-20T04:35:54.796Z,7.00
2022-12-20T04:38:23.980Z,7.10
2022-12-20T04:40:53.004Z,7.10
2022-12-20T04:43:23.648Z,7.10
2022-12-20T04:45:53.231Z,7.00
2022-12-20T04:48:55.185Z,7.00
2022-12-20T04:51:09.827Z,7.00
2022-12-20T04:53:49.134Z,7.00
2022-12-20T04:56:18.729Z,7.00
2022-12-20T04:58:49.667Z,7.00
2022-12-20T05:01:17.969Z,7.00
2022-12-20T05:03:48.123Z,7.10
2022-12-20T05:06:17.177Z,7.10
2022-12-20T05:08:45.433Z,7.10
2022-12-20T05:11:14.119Z,7.20
2022-12-20T05:13:42.929Z,7.20
2022-12-20T05:16:12.607Z,7.20
2022-12-20T05:18:48.231Z,7.30
2022-12-20T05:21:34.877Z,7.30
2022-12-20T05:24:20.664Z,7.30
2022-12-20T05:26:48.869Z,7.30
2022-12-20T05:29:17.819Z,7.30
2022-12-20T05:31:47.735Z,7.30
2022-12-20T05:34:16.127Z,7.30
2022-12-20T05:36:44.565Z,7.30
2022-12-20T05:39:12.882Z,7.30
2022-12-20T05:41:41.365Z,7.40
2022-12-20T05:44:09.983Z,7.40
2022-12-20T05:46:38.230Z,7.40
2022-12-20T05:49:08.263Z,7.40
2022-12-20T05:51:36.547Z,7.40
2022-12-20T05:54:04.850Z,7.40
2022-12-20T05:56:33.023Z,7.40
2022-12-20T05:59:01.193Z,7.50
2022-12-20T06:01:29.394Z,7.50
2022-12-20T06:03:57.921Z,7.50
2022-12-20T06:06:27.627Z,7.50
2022-12-20T06:08:57.073Z,7.50
2022-12-20T06:11:29.940Z,7.50
2022-12-20T06:13:59.417Z,7.50
2022-12-20T06:16:28.600Z,7.50
2022-12-20T06:18:57.497Z,7.50
2022-12-20T06:21:28.493Z,7.50
2022-12-20T06:23:56.841Z,7.50
2022-12-20T06:26:25.064Z,7.50
2022-12-20T06:28:54.776Z,7.50
2022-12-20T06:31:23.023Z,7.50
2022-12-20T06:33:51.234Z,7.50
2022-12-20T06:36:19.426Z,7.40
2022-12-20T06:38:49.509Z,7.40
2022-12-20T06:41:18.000Z,7.30
2022-12-20T06:43:46.398Z,7.30
2022-12-20T06:46:14.609Z,7.30
2022-12-20T06:48:42.910Z,7.30
2022-12-20T06:51:11.201Z,7.30
2022-12-20T06:53:39.378Z,7.30
2022-12-20T06:56:09.252Z,7.30
2022-12-20T06:58:37.449Z,7.40
2022-12-20T07:01:05.962Z,7.40
2022-12-20T07:03:34.395Z,7.40
2022-12-20T07:06:02.605Z,7.50
2022-12-20T07:08:30.910Z,7.50
2022-12-20T07:11:05.693Z,7.50
2022-12-20T07:13:35.526Z,7.50
2022-12-20T07:16:05.100Z,7.60
2022-12-20T07:18:35.430Z,7.60
2022-12-20T07:21:05.196Z,7.60
2022-12-20T07:23:33.473Z,7.70
2022-12-20T07:26:03.912Z,7.70
2022-12-20T07:28:32.258Z,7.70
2022-12-20T07:31:04.053Z,7.70
2022-12-20T07:33:32.384Z,7.70
2022-12-20T07:36:04.351Z,7.80
2022-12-20T07:38:32.834Z,7.70
2022-12-20T07:41:00.971Z,7.80
2022-12-20T07:43:29.440Z,7.80
2022-12-20T07:45:58.162Z,7.80
2022-12-20T07:48:27.943Z,7.80
2022-12-20T07:51:00.325Z,7.90
2022-12-20T07:53:32.506Z,7.90
2022-12-20T07:56:02.976Z,7.90
2022-12-20T07:58:32.516Z,7.90
2022-12-20T08:01:00.848Z,7.90
2022-12-20T08:03:34.166Z,7.90
2022-12-20T08:06:06.083Z,7.90
2022-12-20T08:08:36.103Z,7.90
2022-12-20T08:11:05.638Z,8.00
2022-12-20T08:13:34.543Z,7.90
2022-12-20T08:16:02.731Z,8.00
2022-12-20T08:18:35.264Z,8.00
2022-12-20T08:21:03.706Z,8.00
2022-12-20T08:23:31.937Z,8.00
2022-12-20T08:26:02.215Z,8.00
2022-12-20T08:28:30.442Z,8.10
2022-12-20T08:31:03.208Z,8.10
2022-12-20T08:33:33.681Z,8.10
2022-12-20T08:36:04.793Z,8.20
2022-12-20T08:38:34.089Z,8.20
2022-12-20T08:41:05.112Z,8.20
2022-12-20T08:43:33.699Z,8.20
2022-12-20T08:46:02.175Z,8.30
2022-12-20T08:48:32.503Z,8.30
2022-12-20T08:51:02.254Z,8.30
2022-12-20T08:53:31.187Z,8.30
2022-12-20T08:56:05.819Z,8.40
2022-12-20T08:58:34.039Z,8.40
2022-12-20T09:01:06.480Z,8.40
2022-12-20T09:03:37.802Z,8.50
2022-12-20T09:06:08.134Z,8.50
2022-12-20T09:08:37.685Z,8.50
2022-12-20T09:11:06.954Z,8.50
2022-12-20T09:13:41.668Z,8.50
2022-12-20T09:16:11.606Z,8.50
2022-12-20T09:18:41.333Z,8.50
2022-12-20T09:21:10.789Z,8.50
2022-12-20T09:23:39.413Z,8.50
2022-12-20T09:26:11.353Z,8.50
2022-12-20T09:28:39.329Z,8.50
2022-12-20T09:31:09.561Z,8.50
2022-12-20T09:33:37.796Z,8.60
2022-12-20T09:36:11.977Z,8.50
2022-12-20T09:38:40.171Z,8.50
2022-12-20T09:41:22.463Z,8.50
2022-12-20T09:43:51.269Z,8.50
2022-12-20T09:46:19.888Z,8.50
2022-12-20T09:48:48.674Z,8.50
2022-12-20T09:51:33.689Z,8.50
2022-12-20T09:54:12.102Z,8.60
2022-12-20T09:56:45.152Z,8.60
2022-12-20T09:59:15.966Z,8.60
2022-12-20T10:01:46.089Z,8.60
2022-12-20T10:04:21.516Z,8.60
2022-12-20T10:07:04.350Z,8.60
2022-12-20T10:09:50.486Z,8.60
2022-12-20T10:12:27.778Z,8.60
2022-12-20T10:15:08.962Z,8.60
2022-12-20T10:17:47.898Z,8.70
2022-12-20T10:20:35.316Z,8.70
2022-12-20T10:23:14.462Z,8.70
2022-12-20T10:25:43.347Z,8.80
2022-12-20T10:28:16.424Z,8.80
2022-12-20T10:30:45.034Z,8.80
2022-12-20T10:33:20.376Z,8.80
2022-12-20T10:35:50.524Z,8.80
2022-12-20T10:38:21.016Z,8.80
2022-12-20T10:43:52.155Z,8.90
2022-12-20T10:46:21.000Z,8.90
2022-12-20T10:48:50.835Z,8.90
2022-12-20T10:51:21.079Z,8.90
2022-12-20T10:53:57.526Z,8.80
2022-12-20T10:56:29.080Z,8.90
2022-12-20T10:59:00.425Z,8.90
2022-12-20T11:01:32.534Z,8.90
2022-12-20T11:04:04.397Z,8.80
2022-12-20T11:06:44.303Z,8.80
2022-12-20T11:09:30.523Z,8.80
2022-12-20T11:12:04.423Z,8.90
2022-12-20T11:14:39.336Z,8.80
2022-12-20T11:17:23.141Z,8.90
2022-12-20T11:20:09.239Z,8.90
2022-12-20T11:22:49.762Z,8.90
2022-12-20T11:25:37.913Z,8.90
2022-12-20T11:28:21.873Z,8.90
2022-12-20T11:31:01.427Z,8.90
2022-12-20T11:33:52.969Z,8.90
2022-12-20T11:36:31.515Z,8.90
2022-12-20T11:39:11.018Z,8.90
2022-12-20T11:41:51.631Z,8.90
2022-12-20T11:44:30.457Z,8.90
2022-12-20T11:47:23.710Z,8.90
2022-12-20T11:50:09.021Z,8.90
2022-12-20T11:52:42.964Z,8.90
2022-12-20T11:55:21.377Z,8.90
2022-12-20T12:00:53.687Z,8.90
2022-12-20T12:03:29.876Z,8.90
2022-12-20T12:06:01.998Z,8.90
2022-12-20T12:08:39.741Z,8.90
2022-12-20T12:11:55.857Z,8.90
2022-12-20T12:14:08.227Z,8.90
2022-12-20T12:16:41.868Z,8.90
2022-12-20T12:19:11.692Z,8.90
2022-12-20T12:21:44.409Z,8.90
2022-12-20T12:24:24.165Z,8.90
2022-12-20T12:26:53.942Z,8.90
2022-12-20T12:29:24.098Z,8.90
2022-12-20T12:31:59.299Z,8.90
2022-12-20T12:34:43.057Z,8.90
2022-12-20T12:37:27.904Z,8.90
2022-12-20T12:40:17.465Z,8.90
2022-12-20T12:43:11.873Z,8.90
2022-12-20T12:45:46.603Z,8.90
2022-12-20T12:48:19.802Z,8.90
2022-12-20T12:50:51.307Z,8.90
2022-12-20T12:53:23.153Z,8.90
2022-12-20T12:56:02.374Z,9.00
2022-12-20T12:58:46.600Z,9.00
2022-12-20T13:01:49.011Z,9.00
2022-12-20T13:04:30.852Z,9.00
2022-12-20T13:11:07.527Z,9.10
2022-12-20T13:13:37.084Z,9.10
2022-12-20T13:16:14.373Z,9.10
2022-12-20T13:19:00.697Z,9.20
2022-12-20T13:21:39.494Z,9.20
2022-12-20T13:24:56.295Z,9.20
2022-12-20T13:27:36.518Z,9.20
2022-12-20T13:30:30.529Z,9.20
2022-12-20T13:33:24.973Z,9.20
2022-12-20T13:36:29.381Z,9.20
2022-12-20T13:38:59.983Z,9.20
2022-12-20T13:41:45.187Z,9.20
2022-12-20T13:44:36.454Z,9.20
2022-12-20T13:47:17.164Z,9.20
2022-12-20T13:49:46.046Z,9.20
2022-12-20T13:52:22.836Z,9.20
2022-12-20T13:54:54.675Z,9.20
2022-12-20T13:57:31.903Z,9.20
2022-12-20T14:00:07.087Z,9.20
2022-12-20T14:02:42.945Z,9.20
2022-12-20T14:05:19.575Z,9.20
2022-12-20T14:07:52.652Z,9.20
2022-12-20T14:10:24.817Z,9.20
2022-12-20T14:12:54.281Z,9.20
2022-12-20T14:15:25.168Z,9.20
2022-12-20T14:17:54.854Z,9.20
2022-12-20T14:20:27.387Z,9.20
2022-12-20T14:23:04.464Z,9.20
2022-12-20T14:25:38.805Z,9.20
2022-12-20T14:28:17.876Z,9.20
2022-12-20T14:30:49.771Z,9.20
2022-12-20T14:33:28.055Z,9.20
2022-12-20T14:35:56.335Z,9.20
2022-12-20T14:38:30.504Z,9.20
2022-12-20T14:40:58.849Z,9.20
2022-12-20T14:43:29.810Z,9.20
2022-12-20T14:46:19.236Z,9.20
2022-12-20T14:48:49.290Z,9.20
2022-12-20T14:51:22.686Z,9.20
2022-12-20T14:53:53.422Z,9.20
2022-12-20T14:56:31.416Z,9.20
2022-12-20T14:59:07.020Z,9.20
2022-12-20T15:01:40.077Z,9.20
2022-12-20T15:04:31.478Z,9.20
2022-12-20T15:07:00.271Z,9.30
2022-12-20T15:09:28.799Z,9.30
2022-12-20T15:11:59.009Z,9.40
2022-12-20T15:14:36.603Z,9.40
2022-12-20T15:17:05.896Z,9.40
2022-12-20T15:19:40.459Z,9.40
2022-12-20T15:22:15.470Z,9.40
2022-12-20T15:24:44.041Z,9.50
2022-12-20T15:27:14.834Z,9.50
2022-12-20T15:29:43.316Z,9.50
2022-12-20T15:32:18.941Z,9.50
2022-12-20T15:34:48.551Z,9.50
2022-12-20T15:37:19.004Z,9.50
2022-12-20T15:39:47.809Z,9.50
2022-12-20T15:42:18.658Z,9.50
2022-12-20T15:44:47.410Z,9.50
2022-12-20T15:47:16.952Z,9.50
2022-12-20T15:49:50.119Z,9.50
2022-12-20T15:52:22.438Z,9.50
2022-12-20T15:54:51.107Z,9.40
2022-12-20T15:57:19.356Z,9.50
2022-12-20T16:00:03.975Z,9.40
2022-12-20T16:02:34.253Z,9.40
2022-12-20T16:05:02.686Z,9.40
2022-12-20T16:07:32.216Z,9.40
2022-12-20T16:10:00.382Z,9.40
2022-12-20T16:12:31.474Z,9.40
2022-12-20T16:14:59.627Z,9.50
2022-12-20T16:17:27.843Z,9.50
2022-12-20T16:19:56.471Z,9.50
2022-12-20T16:22:26.175Z,9.50
2022-12-20T16:24:55.943Z,9.40
2022-12-20T16:27:24.271Z,9.40
2022-12-20T16:29:52.612Z,9.40
2022-12-20T16:32:25.501Z,9.40
2022-12-20T16:34:54.292Z,9.40
2022-12-20T16:37:23.384Z,9.40
2022-12-20T16:39:51.734Z,9.30
2022-12-20T16:42:23.103Z,9.30
2022-12-20T16:44:53.034Z,9.30
2022-12-20T16:47:21.716Z,9.30
2022-12-20T16:49:53.298Z,9.30
2022-12-20T16:52:22.968Z,9.30
2022-12-20T16:54:51.428Z,9.30
2022-12-20T16:57:21.383Z,9.30
2022-12-20T16:59:49.881Z,9.30
2022-12-20T17:02:25.007Z,9.30
2022-12-20T17:04:53.369Z,9.30
2022-12-20T17:07:21.585Z,9.20
2022-12-20T17:09:49.775Z,9.20
2022-12-20T17:12:19.769Z,9.20
2022-12-20T17:14:49.973Z,9.20
2022-12-20T17:17:18.538Z,9.20
2022-12-20T17:19:46.685Z,9.20
2022-12-20T17:25:06.225Z,9.10
2022-12-20T17:27:34.428Z,9.10
2022-12-20T17:30:04.029Z,9.10
2022-12-20T17:32:32.237Z,9.10
2022-12-20T17:35:00.380Z,9.10
2022-12-20T17:37:28.621Z,9.10
2022-12-20T17:39:56.781Z,9.00
2022-12-20T17:42:30.887Z,9.00
2022-12-20T17:44:59.744Z,9.00
2022-12-20T17:47:29.249Z,9.10
2022-12-20T17:49:58.280Z,9.00
2022-12-20T17:52:26.572Z,9.10
2022-12-20T17:54:54.805Z,9.10
2022-12-20T17:57:22.987Z,9.10
2022-12-20T17:59:51.154Z,9.10
2022-12-20T18:02:24.275Z,9.10
2022-12-20T18:04:54.354Z,9.10
2022-12-20T18:07:22.767Z,9.10
2022-12-20T18:09:51.983Z,9.20
2022-12-20T18:12:20.180Z,9.20
2022-12-20T18:14:49.968Z,9.20
2022-12-20T18:17:18.180Z,9.20
2022-12-20T18:19:46.671Z,9.20
2022-12-20T18:22:16.487Z,9.20
2022-12-20T18:24:44.651Z,9.20
2022-12-20T18:27:12.966Z,9.20
2022-12-20T18:29:41.167Z,9.20
2022-12-20T18:32:09.393Z,9.20
2022-12-20T18:34:37.611Z,9.20
2022-12-20T18:37:06.008Z,9.20
2022-12-20T18:39:35.670Z,9.30
2022-12-20T18:42:03.845Z,9.70
2022-12-20T18:44:35.881Z,10.20
2022-12-20T18:47:07.699Z,10.70
2022-12-20T18:49:37.577Z,11.30
2022-12-20T18:52:06.009Z,11.80
2022-12-20T18:54:35.639Z,12.30
2022-12-20T18:57:05.971Z,12.60
2022-12-20T18:59:34.390Z,12.90
2022-12-20T19:02:02.745Z,13.00
2022-12-20T19:04:31.111Z,12.90
2022-12-20T19:06:59.307Z,12.60
2022-12-20T19:09:27.504Z,12.30
2022-12-20T19:11:58.058Z,11.90
2022-12-20T19:14:26.597Z,11.60
2022-12-20T19:16:54.865Z,11.30
2022-12-20T19:19:23.121Z,11.00
2022-12-20T19:21:51.488Z,10.70
2022-12-20T19:24:19.842Z,10.50
2022-12-20T19:26:48.016Z,10.30
2022-12-20T19:29:17.762Z,10.10
2022-12-20T19:31:46.149Z,9.90
2022-12-20T19:34:15.165Z,9.80
2022-12-20T19:36:44.556Z,9.70
2022-12-20T19:39:15.783Z,9.60
2022-12-20T19:41:50.662Z,9.50
2022-12-20T19:44:29.775Z,9.40
2022-12-20T19:46:58.014Z,9.30
2022-12-20T19:49:26.218Z,9.30
2022-12-20T19:51:54.439Z,9.20
2022-12-20T19:54:22.624Z,9.20
2022-12-20T19:56:50.821Z,9.20
2022-12-20T19:59:19.107Z,9.10
2022-12-20T20:01:49.067Z,9.10
2022-12-20T20:04:17.643Z,9.10
2022-12-20T20:09:21.424Z,9.00
2022-12-20T20:11:49.679Z,9.00
2022-12-20T20:14:17.858Z,9.00
2022-12-20T20:16:46.275Z,9.00
2022-12-20T20:19:15.956Z,8.90
2022-12-20T20:21:44.270Z,8.90
2022-12-20T20:24:12.663Z,8.90
2022-12-20T20:26:40.859Z,8.90
2022-12-20T20:29:10.474Z,8.90
2022-12-20T20:31:39.068Z,8.90
2022-12-20T20:34:08.443Z,8.90
2022-12-20T20:36:38.093Z,8.80
2022-12-20T20:39:06.632Z,8.80
2022-12-20T20:41:34.958Z,8.80
2022-12-20T20:44:03.239Z,8.80
2022-12-20T20:46:31.475Z,8.80
2022-12-20T20:48:59.839Z,8.80
2022-12-20T20:51:28.158Z,8.80
2022-12-20T20:53:58.027Z,8.80
2022-12-20T20:56:26.543Z,8.80
2022-12-20T20:59:02.917Z,8.80
2022-12-20T21:01:34.394Z,8.80
2022-12-20T21:04:02.953Z,8.80
2022-12-20T21:06:46.670Z,8.80
2022-12-20T21:09:16.435Z,8.80
2022-12-20T21:11:45.026Z,8.80
2022-12-20T21:14:13.641Z,8.80
2022-12-20T21:16:42.311Z,8.80
2022-12-20T21:19:11.615Z,8.80
2022-12-20T21:21:40.109Z,8.80
2022-12-20T21:24:08.820Z,8.80
2022-12-20T21:26:38.533Z,8.80
2022-12-20T21:29:06.756Z,8.80
2022-12-20T21:31:35.023Z,8.80
2022-12-20T21:34:03.261Z,8.80
2022-12-20T21:36:31.448Z,8.80
2022-12-20T21:39:00.443Z,8.80
2022-12-20T21:41:30.584Z,8.80
2022-12-20T21:44:27.076Z,8.80
2022-12-20T21:46:55.784Z,8.80
2022-12-20T21:49:24.053Z,8.70
2022-12-20T21:51:56.308Z,8.80
2022-12-20T21:54:25.079Z,8.80
2022-12-20T21:56:53.543Z,8.80
2022-12-20T21:59:23.154Z,8.80
2022-12-20T22:01:51.913Z,8.80
2022-12-20T22:04:20.358Z,8.80
2022-12-20T22:06:48.577Z,8.80
2022-12-20T22:09:17.757Z,8.80
2022-12-20T22:11:48.225Z,8.80
2022-12-20T22:14:16.890Z,8.80
2022-12-20T22:16:47.173Z,8.80
2022-12-20T22:19:15.879Z,8.90
2022-12-20T22:21:44.110Z,8.90
2022-12-20T22:24:12.272Z,8.90
2022-12-20T22:26:41.666Z,8.90
2022-12-20T22:29:10.636Z,8.90
2022-12-20T22:31:39.060Z,9.00
2022-12-20T22:34:09.435Z,9.00
2022-12-20T22:36:38.124Z,9.00
2022-12-20T22:39:06.407Z,9.00
2022-12-20T22:41:35.517Z,9.00
2022-12-20T22:44:04.578Z,9.00
2022-12-20T22:46:33.379Z,9.10
2022-12-20T22:49:01.775Z,9.10
2022-12-20T22:51:33.500Z,9.10
2022-12-20T22:54:02.001Z,9.10
2022-12-20T22:56:30.156Z,9.10
2022-12-20T22:58:58.423Z,9.10
2022-12-20T23:01:27.054Z,9.10
2022-12-20T23:03:55.394Z,9.20
2022-12-20T23:06:23.638Z,9.10
2022-12-20T23:08:53.231Z,9.10
2022-12-20T23:11:40.787Z,9.20
2022-12-20T23:14:30.035Z,9.20
2022-12-20T23:16:58.685Z,9.10
2022-12-20T23:19:27.157Z,9.20
2022-12-20T23:22:12.562Z,9.10
2022-12-20T23:24:42.208Z,9.10
2022-12-20T23:27:10.368Z,9.10
2022-12-20T23:29:38.821Z,9.10
2022-12-20T23:32:07.155Z,9.10
2022-12-20T23:34:35.456Z,9.10
2022-12-20T23:37:03.646Z,9.10
2022-12-20T23:39:31.914Z,9.10
2022-12-20T23:42:01.677Z,9.10
2022-12-20T23:44:29.832Z,9.10
2022-12-20T23:46:58.038Z,9.10
2022-12-20T23:49:26.410Z,9.10
2022-12-20T23:51:54.634Z,9.10
2022-12-20T23:54:22.909Z,9.10
2022-12-20T23:56:51.322Z,9.10
2022-12-20T23:59:20.877Z,9.10
